Time;durP1;ratioP1;P1;durP2;ratioP2;P2;SDS_P1;SDS_P2;PMS_P1;PMS_P2;Temp;Humidity;BMP_temperature;BMP_pressure;BME280_temperature;BME280_humidity;BME280_pressure;Samples;Min_cycle;Max_cycle;Signal;HPM_P1;HPM_P2
2023/08/05 00:01:17;;;;;;;1.52;1.42;;;19.00;99.90;;;;;;5058980;28;20300;-73
2023/08/05 00:03:44;;;;;;;1.05;1.02;;;19.10;99.90;;;;;;5058493;28;20217;-72
2023/08/05 00:06:11;;;;;;;1.33;1.23;;;19.10;99.90;;;;;;5057472;28;20288;-72
2023/08/05 00:08:38;;;;;;;1.10;1.10;;;19.00;99.90;;;;;;5060404;28;20627;-73
2023/08/05 00:11:05;;;;;;;1.40;1.30;;;19.00;99.90;;;;;;5060634;28;20704;-72
2023/08/05 00:13:34;;;;;;;1.10;1.10;;;18.90;99.90;;;;;;5055716;28;20234;-73
2023/08/05 00:16:01;;;;;;;1.27;1.10;;;18.80;99.90;;;;;;5059413;28;20284;-73
2023/08/05 00:18:28;;;;;;;1.00;1.00;;;18.80;99.90;;;;;;5059398;28;20230;-73
2023/08/05 00:20:56;;;;;;;1.30;1.20;;;18.80;99.90;;;;;;5072713;28;20223;-73
2023/08/05 00:23:22;;;;;;;1.27;1.20;;;18.70;99.90;;;;;;5053179;28;20245;-73
2023/08/05 00:25:50;;;;;;;1.50;1.23;;;18.70;99.90;;;;;;5054510;28;20249;-72
2023/08/05 00:28:17;;;;;;;1.20;1.10;;;18.70;99.90;;;;;;5056876;28;20222;-72
2023/08/05 00:30:45;;;;;;;1.33;1.20;;;18.70;99.90;;;;;;5057353;28;20230;-72
2023/08/05 00:33:12;;;;;;;2.20;1.30;;;18.60;99.90;;;;;;5052736;28;20255;-72
2023/08/05 00:35:39;;;;;;;1.40;1.30;;;18.60;99.90;;;;;;5063676;28;20240;-72
2023/08/05 00:38:06;;;;;;;1.10;1.00;;;18.50;99.90;;;;;;5058093;28;20710;-71
2023/08/05 00:40:33;;;;;;;1.48;1.38;;;18.50;99.90;;;;;;5053889;28;20202;-72
2023/08/05 00:43:00;;;;;;;2.05;1.23;;;18.50;99.90;;;;;;5059492;28;20394;-72
2023/08/05 00:45:27;;;;;;;1.40;1.30;;;18.40;99.90;;;;;;5061107;28;20199;-72
2023/08/05 00:47:56;;;;;;;1.38;1.27;;;18.30;99.90;;;;;;5057218;28;20246;-72
2023/08/05 00:50:24;;;;;;;2.05;1.10;;;18.10;99.90;;;;;;5056487;28;20280;-72
2023/08/05 00:52:52;;;;;;;1.20;1.13;;;18.00;99.90;;;;;;5060979;28;20218;-73
2023/08/05 00:55:19;;;;;;;1.25;1.20;;;18.00;99.90;;;;;;5059786;28;20281;-72
2023/08/05 00:57:47;;;;;;;1.30;1.20;;;18.20;99.90;;;;;;5058463;28;20206;-73
2023/08/05 01:00:14;;;;;;;1.40;1.30;;;18.30;99.90;;;;;;5055956;28;20209;-73
2023/08/05 01:02:41;;;;;;;1.35;1.25;;;18.40;99.90;;;;;;5058241;28;20218;-72
2023/08/05 01:05:10;;;;;;;1.60;1.30;;;18.30;99.90;;;;;;5057201;28;20211;-72
2023/08/05 01:07:39;;;;;;;2.97;1.48;;;18.20;99.90;;;;;;5057643;28;20246;-73
2023/08/05 01:10:07;;;;;;;1.40;1.30;;;18.10;99.90;;;;;;5061464;28;20213;-73
2023/08/05 01:12:35;;;;;;;1.55;1.42;;;18.10;99.90;;;;;;5055593;28;20245;-72
2023/08/05 01:15:02;;;;;;;2.03;1.38;;;18.10;99.90;;;;;;5060270;28;20233;-72
2023/08/05 01:17:29;;;;;;;1.23;1.13;;;18.10;99.90;;;;;;5057937;28;20622;-73
2023/08/05 01:19:56;;;;;;;1.45;1.20;;;18.10;99.90;;;;;;5056152;28;20195;-72
2023/08/05 01:22:40;;;;;;;1.33;1.23;;;18.20;99.90;;;;;;5055508;28;20863;-72
2023/08/05 01:25:22;;;;;;;1.40;0.93;;;18.20;99.90;;;;;;5054940;28;20831;-73
2023/08/05 01:27:50;;;;;;;1.80;1.45;;;18.20;99.90;;;;;;5054265;28;20298;-72
2023/08/05 01:30:17;;;;;;;1.40;1.30;;;18.30;99.90;;;;;;5055467;28;20226;-73
2023/08/05 01:32:44;;;;;;;1.20;1.10;;;18.30;99.90;;;;;;5054839;28;20306;-73
2023/08/05 01:35:11;;;;;;;1.63;1.20;;;18.20;99.90;;;;;;5058411;28;20203;-72
2023/08/05 01:37:38;;;;;;;1.30;1.20;;;18.10;99.90;;;;;;5057807;28;20317;-72
2023/08/05 01:40:06;;;;;;;1.50;1.15;;;18.10;99.90;;;;;;5058175;28;20672;-73
2023/08/05 01:42:35;;;;;;;1.13;1.08;;;18.10;99.90;;;;;;5053320;28;20309;-73
2023/08/05 01:45:02;;;;;;;1.00;1.00;;;18.00;99.90;;;;;;5056530;28;20206;-72
2023/08/05 01:47:29;;;;;;;1.23;1.20;;;17.90;99.90;;;;;;5056470;28;20297;-72
2023/08/05 01:49:56;;;;;;;1.17;1.13;;;17.80;99.90;;;;;;5058316;28;20907;-72
2023/08/05 01:52:23;;;;;;;1.10;1.00;;;17.70;99.90;;;;;;5056687;28;20249;-72
2023/08/05 01:54:50;;;;;;;0.85;0.85;;;17.70;99.90;;;;;;5055895;28;20210;-72
2023/08/05 01:57:17;;;;;;;1.10;1.02;;;17.80;99.90;;;;;;5057100;28;20195;-72
2023/08/05 01:59:45;;;;;;;1.40;1.05;;;17.70;99.90;;;;;;5059365;28;20320;-72
2023/08/05 02:02:12;;;;;;;1.65;0.90;;;17.80;99.90;;;;;;5055622;28;20310;-73
2023/08/05 02:04:39;;;;;;;1.10;1.00;;;17.70;99.90;;;;;;5056305;28;20611;-73
2023/08/05 02:07:07;;;;;;;1.10;1.10;;;17.80;99.90;;;;;;5058054;28;20817;-73
2023/08/05 02:09:34;;;;;;;0.90;0.90;;;17.80;99.90;;;;;;5053928;28;20275;-72
2023/08/05 02:12:01;;;;;;;1.10;1.10;;;17.80;99.90;;;;;;5051199;28;20222;-72
2023/08/05 02:14:28;;;;;;;1.00;1.00;;;17.70;99.90;;;;;;5052749;28;20222;-72
2023/08/05 02:16:56;;;;;;;0.90;0.90;;;17.80;99.90;;;;;;5056334;28;20221;-72
2023/08/05 02:19:23;;;;;;;1.30;1.15;;;17.80;99.90;;;;;;5056429;28;20199;-72
2023/08/05 02:21:50;;;;;;;0.77;0.77;;;17.80;99.90;;;;;;5056708;28;20758;-72
2023/08/05 02:24:17;;;;;;;0.90;0.90;;;17.80;99.90;;;;;;5052937;28;20267;-72
2023/08/05 02:26:44;;;;;;;1.00;1.00;;;17.80;99.90;;;;;;5056747;28;20632;-73
2023/08/05 02:29:11;;;;;;;1.35;1.00;;;17.80;99.90;;;;;;5056932;28;20203;-73
2023/08/05 02:31:38;;;;;;;0.80;0.80;;;17.80;99.90;;;;;;5053707;28;20225;-73
2023/08/05 02:34:07;;;;;;;1.17;1.08;;;17.80;99.90;;;;;;5053635;28;20206;-72
2023/08/05 02:36:34;;;;;;;1.40;1.30;;;17.80;99.90;;;;;;5056836;28;20661;-72
2023/08/05 02:39:01;;;;;;;1.00;1.00;;;17.70;99.90;;;;;;5057875;28;20282;-72
2023/08/05 02:41:28;;;;;;;0.80;0.80;;;17.60;99.90;;;;;;5058271;28;20247;-73
2023/08/05 02:43:55;;;;;;;1.23;0.80;;;17.60;99.90;;;;;;5053036;28;20232;-72
2023/08/05 02:46:22;;;;;;;1.02;1.02;;;17.50;99.90;;;;;;5055145;28;20289;-73
2023/08/05 02:48:49;;;;;;;1.20;1.10;;;17.50;99.90;;;;;;5054871;28;20299;-73
2023/08/05 02:51:17;;;;;;;1.13;0.90;;;17.40;99.90;;;;;;5056967;28;20258;-72
2023/08/05 02:53:45;;;;;;;0.75;0.75;;;17.40;99.90;;;;;;5051875;28;20234;-72
2023/08/05 02:56:12;;;;;;;0.95;0.95;;;17.30;99.90;;;;;;5057294;28;20244;-73
2023/08/05 02:58:39;;;;;;;1.00;1.00;;;17.30;99.90;;;;;;5057252;28;20195;-72
2023/08/05 03:01:07;;;;;;;1.00;0.93;;;17.40;99.90;;;;;;5056363;28;20724;-73
2023/08/05 03:03:34;;;;;;;1.20;1.10;;;17.50;99.90;;;;;;5050351;28;20202;-72
2023/08/05 03:06:01;;;;;;;1.10;1.10;;;17.50;99.90;;;;;;5056799;28;20234;-72
2023/08/05 03:08:30;;;;;;;0.90;0.90;;;17.60;99.90;;;;;;5057413;28;20283;-72
2023/08/05 03:10:58;;;;;;;1.10;1.00;;;17.70;99.90;;;;;;5059251;28;20293;-72
2023/08/05 03:13:25;;;;;;;0.93;0.93;;;17.70;99.90;;;;;;5062353;28;20209;-73
2023/08/05 03:15:52;;;;;;;2.00;1.05;;;17.70;99.90;;;;;;5061474;28;20203;-72
2023/08/05 03:18:19;;;;;;;0.88;0.88;;;17.80;99.90;;;;;;5061327;28;20198;-72
2023/08/05 03:20:46;;;;;;;0.80;0.80;;;17.70;99.90;;;;;;5059965;28;20289;-72
2023/08/05 03:23:13;;;;;;;0.77;0.77;;;17.70;99.90;;;;;;5061586;28;20222;-72
2023/08/05 03:25:42;;;;;;;0.90;0.90;;;17.70;99.90;;;;;;5062368;28;20214;-72
2023/08/05 03:28:09;;;;;;;0.73;0.73;;;17.70;99.90;;;;;;5058411;28;20291;-72
2023/08/05 03:30:36;;;;;;;0.80;0.80;;;17.60;99.90;;;;;;5056248;28;20206;-72
2023/08/05 03:33:03;;;;;;;0.85;0.85;;;17.60;99.90;;;;;;5056335;28;20305;-73
2023/08/05 03:35:30;;;;;;;1.10;1.10;;;17.60;99.90;;;;;;5060711;28;20303;-72
2023/08/05 03:37:58;;;;;;;1.05;1.00;;;17.60;99.90;;;;;;5059814;28;20251;-73
2023/08/05 03:40:25;;;;;;;1.23;1.13;;;17.60;99.90;;;;;;5057131;28;20203;-72
2023/08/05 03:42:53;;;;;;;1.40;1.27;;;17.60;99.90;;;;;;5057585;28;20774;-72
2023/08/05 03:45:20;;;;;;;0.90;0.90;;;17.60;99.90;;;;;;5056230;28;20691;-72
2023/08/05 03:47:49;;;;;;;0.90;0.90;;;17.60;99.90;;;;;;5059577;28;20215;-73
2023/08/05 03:50:17;;;;;;;0.80;0.80;;;17.70;99.90;;;;;;5060661;28;20194;-73
2023/08/05 03:52:44;;;;;;;1.15;1.05;;;17.70;99.90;;;;;;5058545;28;20226;-73
2023/08/05 03:55:11;;;;;;;1.42;0.82;;;17.70;99.90;;;;;;5055869;28;20213;-72
2023/08/05 03:57:38;;;;;;;0.75;0.75;;;17.70;99.90;;;;;;5056204;28;20250;-73
2023/08/05 04:00:09;;;;;;;0.88;0.80;;;17.70;99.90;;;;;;5059165;28;20201;-72
2023/08/05 04:02:36;;;;;;;0.70;0.70;;;17.70;99.90;;;;;;5059211;28;20657;-72
2023/08/05 04:05:04;;;;;;;0.82;0.82;;;17.60;99.90;;;;;;5062756;28;20275;-72
2023/08/05 04:07:31;;;;;;;2.58;0.88;;;17.60;99.90;;;;;;5062132;28;20226;-72
2023/08/05 04:09:58;;;;;;;0.70;0.70;;;17.50;99.90;;;;;;5058452;28;20194;-73
2023/08/05 04:12:26;;;;;;;0.70;0.70;;;17.30;99.90;;;;;;5060272;28;20233;-73
2023/08/05 04:14:57;;;;;;;0.75;0.75;;;17.30;99.90;;;;;;5056262;28;20714;-73
2023/08/05 04:17:26;;;;;;;0.70;0.70;;;17.30;99.90;;;;;;5057992;28;20285;-73
2023/08/05 04:19:52;;;;;;;0.80;0.80;;;17.30;99.90;;;;;;5057239;28;20802;-72
2023/08/05 04:22:22;;;;;;;0.82;0.77;;;17.30;99.90;;;;;;5058752;28;20852;-73
2023/08/05 04:24:49;;;;;;;0.68;0.68;;;17.30;99.90;;;;;;5054320;28;20213;-72
2023/08/05 04:27:16;;;;;;;0.77;0.77;;;17.40;99.90;;;;;;5058593;28;20240;-72
2023/08/05 04:29:43;;;;;;;0.70;0.70;;;17.40;99.90;;;;;;5058467;28;20745;-72
2023/08/05 04:32:10;;;;;;;0.80;0.80;;;17.40;99.90;;;;;;5057800;28;20663;-72
2023/08/05 04:34:38;;;;;;;0.70;0.70;;;17.40;99.90;;;;;;5058085;28;20684;-72
2023/08/05 04:37:20;;;;;;;0.65;0.65;;;17.30;99.90;;;;;;5058979;28;20229;-72
2023/08/05 04:39:47;;;;;;;0.73;0.73;;;17.30;99.90;;;;;;5060600;28;20241;-72
2023/08/05 04:42:15;;;;;;;1.20;0.60;;;17.30;99.90;;;;;;5076193;28;20230;-72
2023/08/05 04:44:42;;;;;;;0.70;0.70;;;17.30;99.90;;;;;;5083992;28;20211;-72
2023/08/05 04:47:11;;;;;;;0.80;0.80;;;17.20;99.90;;;;;;5081207;28;20846;-72
2023/08/05 04:49:43;;;;;;;0.80;0.80;;;17.10;99.90;;;;;;5057726;28;20304;-72
2023/08/05 04:52:12;;;;;;;0.60;0.60;;;17.10;99.90;;;;;;5055429;28;20222;-72
2023/08/05 04:54:39;;;;;;;0.60;0.60;;;17.10;99.90;;;;;;5056125;28;20194;-72
2023/08/05 04:57:07;;;;;;;0.70;0.70;;;17.10;99.90;;;;;;5052931;28;20670;-73
2023/08/05 04:59:34;;;;;;;0.63;0.63;;;17.20;99.90;;;;;;5056281;28;20225;-72
2023/08/05 05:02:02;;;;;;;0.70;0.70;;;17.30;99.90;;;;;;5058945;28;20645;-73
2023/08/05 05:04:29;;;;;;;0.60;0.60;;;17.40;99.90;;;;;;5053826;28;20785;-73
2023/08/05 05:06:57;;;;;;;0.75;0.75;;;17.40;99.90;;;;;;5061831;28;20195;-72
2023/08/05 05:09:24;;;;;;;0.60;0.60;;;17.40;99.90;;;;;;5057044;28;20217;-73
2023/08/05 05:11:53;;;;;;;0.63;0.63;;;17.40;99.90;;;;;;5062358;28;20245;-72
2023/08/05 05:14:21;;;;;;;0.50;0.50;;;17.40;99.90;;;;;;5055092;28;20207;-73
2023/08/05 05:16:48;;;;;;;0.60;0.60;;;17.40;99.90;;;;;;5058587;28;20210;-72
2023/08/05 05:19:15;;;;;;;0.73;0.63;;;17.40;99.90;;;;;;5056949;28;20199;-73
2023/08/05 05:21:42;;;;;;;0.70;0.70;;;17.50;99.90;;;;;;5061329;28;20222;-73
2023/08/05 05:24:10;;;;;;;0.93;0.80;;;17.50;99.90;;;;;;5055045;28;20325;-73
2023/08/05 05:26:37;;;;;;;0.80;0.80;;;17.50;99.90;;;;;;5058344;28;20234;-73
2023/08/05 05:29:04;;;;;;;0.60;0.60;;;17.40;99.90;;;;;;5059736;28;20300;-73
2023/08/05 05:31:31;;;;;;;0.70;0.70;;;17.40;99.90;;;;;;5058220;28;20237;-73
2023/08/05 05:33:58;;;;;;;0.60;0.60;;;17.40;99.90;;;;;;5062499;28;20230;-73
2023/08/05 05:36:25;;;;;;;0.70;0.70;;;17.40;99.90;;;;;;5053915;28;20207;-74
2023/08/05 05:38:52;;;;;;;0.57;0.57;;;17.40;99.90;;;;;;5058471;28;20286;-73
2023/08/05 05:41:20;;;;;;;0.88;0.88;;;17.30;99.90;;;;;;5060338;28;20254;-73
2023/08/05 05:43:47;;;;;;;0.70;0.70;;;17.30;99.90;;;;;;5057945;28;20297;-72
2023/08/05 05:46:17;;;;;;;0.70;0.70;;;17.30;99.90;;;;;;5058192;28;20260;-72
2023/08/05 05:48:44;;;;;;;0.60;0.60;;;17.40;99.90;;;;;;5057514;28;20683;-72
2023/08/05 05:51:12;;;;;;;0.75;0.75;;;17.40;99.90;;;;;;5055415;28;20217;-72
2023/08/05 05:53:39;;;;;;;0.80;0.80;;;17.40;99.90;;;;;;5057569;28;20281;-71
2023/08/05 05:56:07;;;;;;;1.30;1.20;;;17.50;99.90;;;;;;5051216;28;20734;-72
2023/08/05 05:58:35;;;;;;;1.77;1.67;;;17.50;99.90;;;;;;5054989;28;20256;-72
2023/08/05 06:01:03;;;;;;;4.63;3.42;;;17.50;99.90;;;;;;5056445;28;20199;-72
2023/08/05 06:03:31;;;;;;;5.05;4.00;;;17.40;99.90;;;;;;5057182;28;20887;-72
2023/08/05 06:05:59;;;;;;;6.30;4.88;;;17.40;99.90;;;;;;5053105;28;20205;-72
2023/08/05 06:08:26;;;;;;;7.28;5.72;;;17.40;99.90;;;;;;5059110;28;20313;-71
2023/08/05 06:10:54;;;;;;;5.47;4.50;;;17.40;99.90;;;;;;5055302;28;20211;-72
2023/08/05 06:13:21;;;;;;;3.80;3.45;;;17.40;99.90;;;;;;5056207;28;20659;-72
2023/08/05 06:15:49;;;;;;;3.28;2.97;;;17.40;99.90;;;;;;5052257;28;20286;-72
2023/08/05 06:18:16;;;;;;;3.00;2.70;;;17.50;99.90;;;;;;5058545;28;20191;-72
2023/08/05 06:20:43;;;;;;;1.83;1.70;;;17.50;99.90;;;;;;5056120;28;20206;-72
2023/08/05 06:23:10;;;;;;;2.60;1.80;;;17.50;99.90;;;;;;5056698;28;20250;-72
2023/08/05 06:25:38;;;;;;;2.00;1.80;;;17.50;99.90;;;;;;5057361;28;20240;-71
2023/08/05 06:28:05;;;;;;;1.30;1.20;;;17.50;99.90;;;;;;5061589;28;20244;-72
2023/08/05 06:30:34;;;;;;;1.60;1.30;;;17.50;99.90;;;;;;5060508;28;20236;-71
2023/08/05 06:33:02;;;;;;;1.20;1.10;;;17.50;99.90;;;;;;5056484;28;20218;-71
2023/08/05 06:35:29;;;;;;;1.30;1.20;;;17.50;99.90;;;;;;5055136;28;20203;-71
2023/08/05 06:37:56;;;;;;;1.13;1.10;;;17.40;99.90;;;;;;5054406;28;20675;-71
2023/08/05 06:40:23;;;;;;;1.67;0.90;;;17.40;99.90;;;;;;5056033;28;20234;-71
2023/08/05 06:42:50;;;;;;;1.38;0.93;;;17.40;99.90;;;;;;5058549;28;20302;-71
2023/08/05 06:45:17;;;;;;;0.82;0.82;;;17.40;99.90;;;;;;5062525;28;20737;-71
2023/08/05 06:47:45;;;;;;;2.28;0.93;;;17.40;99.90;;;;;;5061806;28;20199;-71
2023/08/05 06:50:14;;;;;;;0.70;0.70;;;17.40;99.90;;;;;;5057654;28;20213;-71
2023/08/05 06:52:41;;;;;;;1.48;0.82;;;17.40;99.90;;;;;;5063188;28;20305;-70
2023/08/05 06:55:09;;;;;;;0.70;0.70;;;17.40;99.90;;;;;;5059465;28;20643;-70
2023/08/05 06:57:36;;;;;;;0.70;0.70;;;17.50;99.90;;;;;;5058769;28;20573;-70
2023/08/05 07:00:03;;;;;;;0.63;0.63;;;17.50;99.90;;;;;;5062954;28;20583;-70
2023/08/05 07:02:30;;;;;;;3.13;0.90;;;17.50;99.90;;;;;;5061756;28;20735;-71
2023/08/05 07:04:58;;;;;;;0.77;0.77;;;17.60;99.90;;;;;;5061563;28;20240;-70
2023/08/05 07:07:26;;;;;;;1.17;0.80;;;17.70;99.90;;;;;;5058908;28;20229;-71
2023/08/05 07:10:00;;;;;;;0.70;0.70;;;17.70;99.90;;;;;;5061013;28;20297;-71
2023/08/05 07:12:27;;;;;;;0.60;0.60;;;17.80;99.90;;;;;;5059264;28;20237;-71
2023/08/05 07:14:54;;;;;;;1.17;0.70;;;17.80;99.90;;;;;;5059666;28;20233;-71
2023/08/05 07:17:22;;;;;;;0.60;0.60;;;17.80;99.90;;;;;;5060788;28;20232;-71
2023/08/05 07:19:49;;;;;;;0.60;0.60;;;17.80;99.90;;;;;;5055469;28;20197;-71
2023/08/05 07:22:16;;;;;;;1.10;0.90;;;18.00;99.90;;;;;;5063766;28;20279;-72
2023/08/05 07:24:45;;;;;;;0.68;0.68;;;18.10;99.90;;;;;;5054768;28;20203;-72
2023/08/05 07:27:12;;;;;;;0.88;0.80;;;18.10;99.90;;;;;;5057061;28;20194;-71
2023/08/05 07:29:43;;;;;;;6.03;0.90;;;18.30;99.90;;;;;;5055736;28;20632;-71
2023/08/05 07:32:11;;;;;;;1.17;0.75;;;18.50;99.90;;;;;;5060252;28;20222;-71
2023/08/05 07:34:38;;;;;;;1.98;0.70;;;18.70;99.90;;;;;;5060659;28;20229;-71
2023/08/05 07:37:05;;;;;;;1.88;0.70;;;18.90;99.90;;;;;;5058796;28;20230;-70
2023/08/05 07:39:34;;;;;;;10.55;1.42;;;18.90;99.90;;;;;;5063917;28;20234;-71
2023/08/05 07:42:06;;;;;;;8.05;1.20;;;18.80;99.90;;;;;;5058699;28;20223;-70
2023/08/05 07:44:33;;;;;;;2.25;1.08;;;18.60;99.90;;;;;;5057624;28;20202;-71
2023/08/05 07:47:00;;;;;;;1.90;1.08;;;18.50;99.90;;;;;;5056841;28;20203;-71
2023/08/05 07:49:27;;;;;;;1.40;1.00;;;18.50;99.90;;;;;;5055211;28;20853;-71
2023/08/05 07:51:55;;;;;;;2.17;0.82;;;18.50;99.90;;;;;;5058012;28;20226;-71
2023/08/05 07:54:23;;;;;;;0.80;0.80;;;18.50;99.90;;;;;;5054863;28;20205;-71
2023/08/05 07:56:52;;;;;;;2.35;0.80;;;18.50;99.90;;;;;;5059943;28;20288;-71
2023/08/05 07:59:20;;;;;;;1.00;0.73;;;18.50;99.90;;;;;;5057512;28;20253;-71
2023/08/05 08:01:48;;;;;;;1.02;0.73;;;18.60;99.90;;;;;;5058356;28;20249;-71
2023/08/05 08:04:15;;;;;;;0.73;0.57;;;18.70;99.90;;;;;;5056124;28;20213;-70
2023/08/05 08:06:43;;;;;;;1.27;0.70;;;18.90;99.90;;;;;;5057357;28;20267;-70
2023/08/05 08:09:11;;;;;;;3.92;1.00;;;19.00;99.90;;;;;;5057105;28;20224;-71
2023/08/05 08:11:38;;;;;;;5.68;1.20;;;19.10;99.90;;;;;;5057878;28;20226;-70
2023/08/05 08:14:05;;;;;;;17.52;2.00;;;19.10;99.90;;;;;;5059100;28;20293;-69
2023/08/05 08:16:34;;;;;;;9.95;1.40;;;19.10;99.90;;;;;;5058278;28;20280;-73
2023/08/05 08:19:02;;;;;;;8.85;1.75;;;19.40;99.90;;;;;;5055490;28;20215;-72
2023/08/05 08:21:29;;;;;;;37.63;3.00;;;19.50;99.90;;;;;;5055536;28;20765;-73
2023/08/05 08:23:56;;;;;;;10.18;1.58;;;19.70;99.90;;;;;;5058493;28;20293;-73
2023/08/05 08:26:23;;;;;;;6.88;1.73;;;20.00;99.90;;;;;;5055556;28;20202;-73
2023/08/05 08:28:50;;;;;;;11.77;1.80;;;20.20;99.90;;;;;;5056216;28;20297;-72
2023/08/05 08:31:17;;;;;;;5.38;1.13;;;20.50;99.90;;;;;;5054726;28;20787;-73
2023/08/05 08:33:46;;;;;;;2.53;0.88;;;20.80;99.90;;;;;;5057607;28;20813;-73
2023/08/05 08:36:13;;;;;;;1.17;0.82;;;20.70;99.90;;;;;;5054846;28;20296;-72
2023/08/05 08:38:40;;;;;;;1.10;0.60;;;20.80;99.90;;;;;;5057390;28;20210;-72
2023/08/05 08:41:07;;;;;;;1.10;1.00;;;20.90;99.90;;;;;;5054738;28;20226;-73
2023/08/05 08:43:35;;;;;;;3.85;0.90;;;20.80;99.90;;;;;;5055262;28;20202;-72
2023/08/05 08:46:05;;;;;;;0.50;0.50;;;20.40;99.90;;;;;;5055763;28;20260;-73
2023/08/05 08:48:35;;;;;;;0.75;0.75;;;20.20;99.90;;;;;;5056469;28;20205;-73
2023/08/05 08:51:04;;;;;;;1.80;0.63;;;20.10;99.90;;;;;;5054008;28;20304;-72
2023/08/05 08:53:32;;;;;;;0.93;0.50;;;20.10;99.90;;;;;;5060252;28;20236;-72
2023/08/05 08:56:00;;;;;;;0.70;0.70;;;20.20;99.90;;;;;;5053694;28;20285;-72
2023/08/05 08:58:27;;;;;;;0.70;0.70;;;20.30;99.90;;;;;;5056643;28;20202;-73
2023/08/05 09:00:54;;;;;;;0.60;0.60;;;20.40;99.90;;;;;;5058879;28;20210;-73
2023/08/05 09:03:25;;;;;;;0.80;0.60;;;20.30;99.90;;;;;;5054743;28;20207;-73
2023/08/05 09:05:55;;;;;;;0.52;0.52;;;20.20;99.90;;;;;;5052177;28;20194;-73
2023/08/05 09:08:23;;;;;;;2.92;0.88;;;20.10;99.90;;;;;;5058179;28;20308;-73
2023/08/05 09:10:51;;;;;;;0.60;0.60;;;20.30;99.90;;;;;;5057865;28;20306;-73
2023/08/05 09:13:19;;;;;;;0.73;0.73;;;20.60;99.90;;;;;;5056021;28;20195;-73
2023/08/05 09:15:47;;;;;;;0.60;0.60;;;20.90;99.90;;;;;;5052545;28;20194;-73
2023/08/05 09:18:14;;;;;;;1.13;0.60;;;21.10;99.90;;;;;;5058117;28;20264;-75
2023/08/05 09:20:41;;;;;;;1.58;0.73;;;21.20;99.90;;;;;;5058788;28;20861;-70
2023/08/05 09:23:10;;;;;;;0.60;0.60;;;21.10;99.90;;;;;;5054186;28;20257;-70
2023/08/05 09:25:42;;;;;;;0.70;0.70;;;20.90;99.90;;;;;;5053931;28;20850;-71
2023/08/05 09:28:10;;;;;;;0.90;0.90;;;20.70;99.90;;;;;;5053979;28;20299;-70
2023/08/05 09:30:37;;;;;;;1.00;0.90;;;20.90;99.90;;;;;;5040595;28;20963;-71
2023/08/05 09:33:04;;;;;;;0.70;0.70;;;21.30;99.90;;;;;;5055554;28;20225;-70
2023/08/05 09:35:32;;;;;;;0.80;0.80;;;21.80;99.90;;;;;;5054379;28;20205;-71
2023/08/05 09:38:00;;;;;;;0.70;0.70;;;21.90;99.90;;;;;;5055772;28;20275;-71
2023/08/05 09:40:29;;;;;;;0.77;0.60;;;21.50;99.90;;;;;;5057014;28;20202;-71
2023/08/05 09:42:59;;;;;;;1.40;0.80;;;21.40;99.90;;;;;;5055689;28;20717;-71
2023/08/05 09:45:28;;;;;;;0.93;0.68;;;21.40;99.90;;;;;;5052798;28;20190;-71
2023/08/05 09:48:03;;;;;;;1.13;0.68;;;21.50;99.90;;;;;;5056218;28;20195;-72
2023/08/05 09:50:31;;;;;;;0.70;0.70;;;21.70;99.90;;;;;;5057898;28;20241;-71
2023/08/05 09:53:01;;;;;;;0.77;0.75;;;22.20;99.90;;;;;;5054704;28;20309;-72
2023/08/05 09:55:28;;;;;;;1.05;0.73;;;22.50;99.90;;;;;;5058665;28;20784;-71
2023/08/05 09:57:57;;;;;;;0.70;0.68;;;22.40;99.90;;;;;;5059448;28;20199;-72
2023/08/05 10:00:25;;;;;;;0.73;0.65;;;22.50;99.90;;;;;;5065388;28;20200;-71
2023/08/05 10:02:52;;;;;;;1.02;0.70;;;22.40;99.90;;;;;;5057013;28;20225;-71
2023/08/05 10:05:22;;;;;;;0.60;0.60;;;22.50;99.90;;;;;;5056532;28;20694;-71
2023/08/05 10:07:53;;;;;;;1.77;0.60;;;22.80;99.90;;;;;;5058663;28;20195;-71
2023/08/05 10:10:21;;;;;;;0.90;0.70;;;23.10;99.90;;;;;;5056499;28;20297;-72
2023/08/05 10:12:52;;;;;;;8.77;1.08;;;23.30;99.90;;;;;;5055447;28;20222;-72
2023/08/05 10:15:26;;;;;;;2.72;0.63;;;23.40;99.90;;;;;;5060260;28;20202;-72
2023/08/05 10:17:54;;;;;;;0.85;0.73;;;23.20;99.90;;;;;;5054781;28;21465;-72
2023/08/05 10:20:22;;;;;;;0.60;0.60;;;23.10;99.90;;;;;;5060265;28;20198;-71
2023/08/05 10:23:03;;;;;;;2.72;0.75;;;23.10;99.90;;;;;;5061710;28;20221;-72
2023/08/05 10:25:42;;;;;;;42.90;4.03;;;23.20;99.90;;;;;;5058274;28;20206;-72
2023/08/05 10:28:10;;;;;;;2.28;0.70;;;23.60;99.90;;;;;;5058127;28;20889;-73
2023/08/05 10:30:45;;;;;;;0.75;0.60;;;24.00;99.90;;;;;;5061643;28;20785;-73
2023/08/05 10:33:12;;;;;;;0.70;0.70;;;24.10;99.90;;;;;;5062941;28;20226;-73
2023/08/05 10:35:40;;;;;;;0.60;0.60;;;23.90;99.90;;;;;;5061887;28;20663;-71
2023/08/05 10:38:12;;;;;;;0.60;0.60;;;23.80;99.90;;;;;;5059887;28;20595;-72
2023/08/05 10:40:40;;;;;;;0.68;0.60;;;23.70;99.90;;;;;;5059472;28;21289;-73
2023/08/05 10:43:09;;;;;;;2.25;0.70;;;23.60;99.90;;;;;;5060647;28;20221;-72
2023/08/05 10:45:36;;;;;;;0.50;0.50;;;23.70;99.90;;;;;;5063168;28;20729;-73
2023/08/05 10:48:13;;;;;;;0.95;0.68;;;23.90;99.90;;;;;;5058408;28;20233;-72
2023/08/05 10:50:43;;;;;;;0.50;0.50;;;24.20;99.90;;;;;;5059845;28;20758;-72
2023/08/05 10:53:13;;;;;;;0.63;0.50;;;24.70;99.90;;;;;;5040672;28;20229;-72
2023/08/05 10:55:48;;;;;;;1.38;0.45;;;25.10;99.90;;;;;;5059033;28;20675;-72
2023/08/05 10:58:15;;;;;;;0.50;0.50;;;25.10;99.90;;;;;;5059363;28;20310;-72
2023/08/05 11:00:44;;;;;;;0.50;0.50;;;25.10;99.90;;;;;;5057689;28;20209;-73
2023/08/05 11:03:33;;;;;;;0.45;0.45;;;25.20;99.90;;;;;;5061327;28;20219;-73
2023/08/05 11:06:05;;;;;;;0.50;0.50;;;25.40;99.90;;;;;;5059553;28;21143;-73
2023/08/05 11:08:33;;;;;;;0.47;0.47;;;25.50;99.90;;;;;;5060085;28;20289;-73
2023/08/05 11:11:04;;;;;;;0.57;0.55;;;25.70;99.90;;;;;;5060162;28;21472;-73
2023/08/05 11:13:36;;;;;;;0.50;0.50;;;26.00;99.90;;;;;;5062472;28;20206;-72
2023/08/05 11:16:07;;;;;;;0.60;0.60;;;26.20;99.90;;;;;;5061315;28;20991;-73
2023/08/05 11:18:36;;;;;;;0.40;0.40;;;26.60;99.90;;;;;;5058757;28;20284;-73
2023/08/05 11:21:06;;;;;;;1.45;0.52;;;26.80;99.90;;;;;;5063446;28;20190;-73
2023/08/05 11:23:33;;;;;;;0.65;0.65;;;26.70;99.90;;;;;;5061569;28;20207;-73
2023/08/05 11:26:01;;;;;;;0.40;0.40;;;26.40;99.90;;;;;;5054090;28;20210;-73
2023/08/05 11:28:28;;;;;;;0.63;0.50;;;26.20;99.90;;;;;;5059919;28;20663;-72
2023/08/05 11:30:56;;;;;;;0.47;0.47;;;26.40;99.90;;;;;;5059696;28;20326;-73
2023/08/05 11:33:23;;;;;;;0.40;0.40;;;26.40;99.90;;;;;;5058019;28;20262;-73
2023/08/05 11:35:53;;;;;;;0.40;0.40;;;26.60;99.90;;;;;;5050435;28;20267;-72
2023/08/05 11:38:22;;;;;;;0.40;0.40;;;27.00;99.90;;;;;;5056861;28;20686;-72
2023/08/05 11:40:53;;;;;;;0.40;0.40;;;27.40;99.90;;;;;;5056165;28;20198;-72
2023/08/05 11:43:21;;;;;;;0.65;0.47;;;27.90;99.90;;;;;;5055203;28;20202;-72
2023/08/05 11:45:49;;;;;;;0.40;0.40;;;27.70;99.90;;;;;;5058212;28;20408;-72
2023/08/05 11:48:20;;;;;;;1.63;0.50;;;27.60;99.90;;;;;;5056365;28;20211;-73
2023/08/05 11:50:48;;;;;;;0.50;0.50;;;27.10;99.90;;;;;;5054409;28;20214;-73
2023/08/05 11:53:17;;;;;;;0.40;0.40;;;26.50;99.90;;;;;;5059818;28;20202;-72
2023/08/05 11:55:46;;;;;;;0.40;0.40;;;26.10;99.90;;;;;;5053344;28;20888;-75
2023/08/05 11:58:13;;;;;;;0.50;0.50;;;25.80;99.90;;;;;;5055907;28;20209;-74
2023/08/05 12:00:48;;;;;;;0.50;0.50;;;25.70;99.90;;;;;;5057482;28;20252;-73
2023/08/05 12:03:15;;;;;;;0.63;0.50;;;25.70;99.90;;;;;;5058955;28;20254;-74
2023/08/05 12:05:43;;;;;;;0.30;0.30;;;25.60;99.90;;;;;;5061423;28;20331;-73
2023/08/05 12:08:11;;;;;;;0.50;0.50;;;25.70;99.90;;;;;;5059679;28;20230;-76
2023/08/05 12:10:41;;;;;;;0.40;0.40;;;25.90;99.90;;;;;;5058180;28;20226;-76
2023/08/05 12:13:09;;;;;;;1.98;0.43;;;26.00;99.90;;;;;;5057156;28;20977;-76
2023/08/05 12:15:37;;;;;;;0.52;0.40;;;26.10;99.90;;;;;;5058603;28;20613;-77
2023/08/05 12:18:05;;;;;;;0.30;0.30;;;26.00;99.90;;;;;;5039166;28;20202;-77
2023/08/05 12:20:33;;;;;;;0.50;0.50;;;25.80;99.90;;;;;;5065189;28;20600;-77
2023/08/05 12:23:02;;;;;;;0.55;0.40;;;25.60;99.90;;;;;;5055804;28;20218;-76
2023/08/05 12:25:30;;;;;;;0.30;0.30;;;25.50;99.90;;;;;;5055992;28;20204;-77
2023/08/05 12:28:00;;;;;;;0.50;0.50;;;25.40;99.90;;;;;;5058907;28;20202;-76
2023/08/05 12:30:27;;;;;;;0.50;0.50;;;25.40;99.90;;;;;;5058753;28;20222;-76
2023/08/05 12:32:57;;;;;;;0.40;0.40;;;25.50;99.90;;;;;;5058308;28;20303;-73
2023/08/05 12:35:24;;;;;;;0.40;0.40;;;25.40;99.90;;;;;;5057128;28;20213;-72
2023/08/05 12:37:51;;;;;;;0.40;0.40;;;25.40;99.90;;;;;;5057562;28;20201;-72
2023/08/05 12:40:19;;;;;;;0.40;0.40;;;25.40;99.90;;;;;;5060532;28;20292;-73
2023/08/05 12:42:46;;;;;;;0.30;0.30;;;25.40;99.90;;;;;;5061601;28;20226;-72
2023/08/05 12:45:14;;;;;;;1.75;0.40;;;25.40;99.90;;;;;;5057263;28;20232;-73
2023/08/05 12:47:41;;;;;;;0.40;0.40;;;25.40;99.90;;;;;;5058253;28;20312;-73
2023/08/05 12:50:09;;;;;;;0.50;0.50;;;25.40;99.90;;;;;;5058566;28;20202;-72